createdAt,value
2023-02-25T00:00:37.106Z,89.71
2023-02-25T00:03:05.106Z,90.07
2023-02-25T00:05:33.587Z,86.99
2023-02-25T00:08:01.225Z,87.97
2023-02-25T00:10:28.721Z,87.59
2023-02-25T00:13:08.922Z,90.46
2023-02-25T00:15:43.584Z,89.66
2023-02-25T00:18:11.035Z,89.47
2023-02-25T00:20:40.515Z,94.56
2023-02-25T00:23:08.123Z,97.51
2023-02-25T00:25:35.566Z,99.25
2023-02-25T00:28:06.274Z,100.00
2023-02-25T00:30:34.375Z,100.00
2023-02-25T00:33:01.965Z,100.00
2023-02-25T00:35:29.396Z,99.25
2023-02-25T00:38:04.013Z,97.50
2023-02-25T00:40:39.768Z,96.97
2023-02-25T00:43:08.890Z,97.10
2023-02-25T00:45:36.631Z,97.97
2023-02-25T00:48:04.191Z,97.91
2023-02-25T00:50:31.601Z,96.06
2023-02-25T00:52:59.053Z,96.42
2023-02-25T00:55:33.293Z,94.78
2023-02-25T00:58:01.770Z,94.92
2023-02-25T01:00:35.840Z,96.39
2023-02-25T01:03:08.130Z,98.86
2023-02-25T01:05:35.574Z,97.19
2023-02-25T01:08:03.320Z,95.25
2023-02-25T01:10:30.714Z,95.69
2023-02-25T01:12:58.233Z,96.60
2023-02-25T01:15:25.733Z,95.09
2023-02-25T01:17:54.470Z,94.52
2023-02-25T01:20:24.093Z,92.61
2023-02-25T01:22:51.508Z,93.41
2023-02-25T01:25:18.953Z,92.95
2023-02-25T01:27:46.438Z,93.09
2023-02-25T01:30:14.254Z,92.73
2023-02-25T01:32:41.783Z,93.76
2023-02-25T01:35:10.763Z,94.66
2023-02-25T01:37:38.312Z,96.05
2023-02-25T01:40:07.359Z,97.21
2023-02-25T01:42:34.797Z,98.01
2023-02-25T01:45:26.900Z,98.22
2023-02-25T01:47:58.704Z,97.54
2023-02-25T01:50:32.587Z,98.47
2023-02-25T01:53:03.645Z,98.83
2023-02-25T01:55:31.711Z,98.13
2023-02-25T01:58:01.237Z,98.20
2023-02-25T02:00:32.132Z,98.33
2023-02-25T02:03:00.383Z,98.28
2023-02-25T02:05:41.922Z,96.01
2023-02-25T02:08:10.146Z,98.61
2023-02-25T02:10:37.609Z,97.22
2023-02-25T02:13:05.194Z,96.09
2023-02-25T02:15:38.928Z,96.98
2023-02-25T02:18:08.568Z,97.06
2023-02-25T02:20:48.542Z,95.42
2023-02-25T02:23:40.801Z,95.64
2023-02-25T02:26:29.964Z,96.47
2023-02-25T02:29:37.360Z,96.36
2023-02-25T02:32:14.727Z,96.58
2023-02-25T02:34:49.621Z,97.14
2023-02-25T02:37:27.204Z,96.01
2023-02-25T02:40:06.682Z,95.73
2023-02-25T02:42:41.816Z,94.97
2023-02-25T02:45:14.503Z,94.36
2023-02-25T02:47:47.236Z,95.61
2023-02-25T02:50:19.624Z,96.28
2023-02-25T02:52:52.166Z,95.76
2023-02-25T02:55:23.547Z,95.22
2023-02-25T02:57:54.691Z,95.41
2023-02-25T03:00:26.582Z,96.72
2023-02-25T03:03:02.573Z,97.12
2023-02-25T03:05:32.651Z,97.68
2023-02-25T03:08:06.782Z,98.84
2023-02-25T03:10:35.284Z,98.28
2023-02-25T03:13:02.771Z,97.41
2023-02-25T03:15:33.031Z,98.19
2023-02-25T03:18:06.900Z,97.63
2023-02-25T03:20:41.524Z,97.50
2023-02-25T03:23:13.410Z,96.42
2023-02-25T03:25:47.667Z,97.84
2023-02-25T03:28:25.704Z,96.02
2023-02-25T03:31:01.583Z,96.44
2023-02-25T03:33:35.947Z,95.91
2023-02-25T03:36:09.529Z,97.47
2023-02-25T03:38:39.970Z,95.36
2023-02-25T03:41:10.801Z,95.53
2023-02-25T03:43:43.167Z,96.78
2023-02-25T03:46:11.611Z,97.86
2023-02-25T03:48:41.810Z,96.65
2023-02-25T03:51:10.749Z,97.17
2023-02-25T03:53:38.480Z,96.84
2023-02-25T03:56:09.312Z,97.18
2023-02-25T03:58:38.346Z,96.83
2023-02-25T04:01:09.333Z,95.77
2023-02-25T04:03:36.836Z,95.94
2023-02-25T04:06:06.506Z,97.54
2023-02-25T04:08:34.010Z,97.46
2023-02-25T04:11:01.444Z,96.82
2023-02-25T04:13:28.843Z,96.88
2023-02-25T04:15:56.467Z,96.99
2023-02-25T04:18:24.916Z,98.33
2023-02-25T04:20:52.403Z,97.15
2023-02-25T04:23:21.179Z,96.77
2023-02-25T04:25:48.633Z,98.22
2023-02-25T04:28:16.152Z,98.61
2023-02-25T04:30:43.898Z,97.88
2023-02-25T04:33:11.716Z,98.32
2023-02-25T04:35:39.549Z,99.38
2023-02-25T04:38:09.115Z,99.47
2023-02-25T04:40:38.549Z,99.26
2023-02-25T04:43:06.084Z,100.00
2023-02-25T04:45:33.611Z,99.54
2023-02-25T04:48:01.310Z,100.00
2023-02-25T04:50:28.799Z,100.00
2023-02-25T04:52:56.354Z,100.00
2023-02-25T04:55:23.796Z,100.00
2023-02-25T04:57:52.566Z,100.00
2023-02-25T05:00:24.111Z,100.00
2023-02-25T05:02:51.966Z,99.93
2023-02-25T05:05:19.720Z,100.00
2023-02-25T05:07:47.261Z,100.00
2023-02-25T05:10:15.656Z,99.42
2023-02-25T05:12:43.244Z,99.87
2023-02-25T05:15:13.361Z,100.00
2023-02-25T05:17:40.835Z,99.77
2023-02-25T05:20:13.010Z,100.00
2023-02-25T05:22:41.639Z,98.88
2023-02-25T05:25:10.362Z,98.67
2023-02-25T05:27:38.114Z,98.95
2023-02-25T05:30:06.704Z,99.45
2023-02-25T05:32:35.585Z,98.69
2023-02-25T05:35:03.187Z,98.71
2023-02-25T05:37:32.507Z,98.81
2023-02-25T05:39:59.970Z,99.37
2023-02-25T05:42:27.563Z,98.69
2023-02-25T05:44:55.009Z,98.62
2023-02-25T05:47:22.553Z,99.29
2023-02-25T05:49:51.304Z,98.55
2023-02-25T05:52:18.703Z,99.62
2023-02-25T05:54:46.198Z,99.84
2023-02-25T05:57:13.593Z,100.00
2023-02-25T05:59:41.045Z,100.00
2023-02-25T06:02:08.749Z,100.00
2023-02-25T06:04:36.201Z,100.00
2023-02-25T06:07:05.056Z,99.74
2023-02-25T06:09:34.589Z,100.00
2023-02-25T06:12:02.014Z,100.00
2023-02-25T06:14:29.495Z,100.00
2023-02-25T06:16:57.286Z,100.00
2023-02-25T06:19:26.329Z,99.95
2023-02-25T06:21:54.741Z,100.00
2023-02-25T06:24:24.698Z,100.00
2023-02-25T06:26:52.252Z,100.00
2023-02-25T06:29:19.956Z,100.00
2023-02-25T06:31:47.569Z,100.00
2023-02-25T06:34:15.098Z,100.00
2023-02-25T06:36:42.576Z,100.00
2023-02-25T06:39:12.329Z,100.00
2023-02-25T06:41:41.131Z,100.00
2023-02-25T06:44:08.594Z,100.00
2023-02-25T06:46:36.168Z,100.00
2023-02-25T06:49:03.783Z,100.00
2023-02-25T06:51:31.276Z,100.00
2023-02-25T06:53:58.764Z,100.00
2023-02-25T06:56:26.781Z,100.00
2023-02-25T06:58:56.763Z,100.00
2023-02-25T07:01:24.267Z,100.00
2023-02-25T07:03:51.779Z,100.00
2023-02-25T07:06:19.696Z,100.00
2023-02-25T07:08:47.371Z,100.00
2023-02-25T07:11:27.007Z,100.00
2023-02-25T07:13:55.995Z,100.00
2023-02-25T07:16:23.754Z,100.00
2023-02-25T07:18:51.868Z,100.00
2023-02-25T07:21:19.999Z,100.00
2023-02-25T07:23:47.467Z,100.00
2023-02-25T07:26:15.953Z,100.00
2023-02-25T07:28:44.380Z,100.00
2023-02-25T07:31:15.968Z,100.00
2023-02-25T07:33:43.740Z,100.00
2023-02-25T07:36:12.422Z,100.00
2023-02-25T07:38:40.147Z,100.00
2023-02-25T07:41:09.055Z,100.00
2023-02-25T07:43:36.865Z,100.00
2023-02-25T07:46:05.140Z,100.00
2023-02-25T07:48:34.126Z,100.00
2023-02-25T07:51:06.100Z,100.00
2023-02-25T07:53:33.599Z,100.00
2023-02-25T07:56:01.161Z,100.00
2023-02-25T07:58:28.824Z,100.00
2023-02-25T08:00:56.614Z,100.00
2023-02-25T08:03:24.098Z,100.00
2023-02-25T08:05:54.651Z,100.00
2023-02-25T08:08:23.143Z,100.00
2023-02-25T08:10:50.675Z,100.00
2023-02-25T08:13:18.123Z,100.00
2023-02-25T08:15:46.552Z,100.00
2023-02-25T08:18:14.444Z,99.17
2023-02-25T08:20:47.241Z,99.76
2023-02-25T08:23:16.424Z,99.87
2023-02-25T08:25:43.877Z,99.94
2023-02-25T08:28:11.427Z,100.00
2023-02-25T08:30:38.924Z,99.34
2023-02-25T08:33:06.399Z,98.67
2023-02-25T08:35:33.840Z,98.72
2023-02-25T08:38:01.267Z,99.24
2023-02-25T08:40:30.015Z,98.87
2023-02-25T08:42:57.463Z,98.62
2023-02-25T08:45:25.989Z,98.65
2023-02-25T08:47:53.861Z,98.26
2023-02-25T08:50:23.794Z,99.24
2023-02-25T08:52:52.183Z,98.83
2023-02-25T08:55:19.914Z,98.96
2023-02-25T08:57:48.680Z,98.21
2023-02-25T09:00:16.784Z,97.43
2023-02-25T09:02:44.979Z,97.34
2023-02-25T09:05:12.473Z,98.39
2023-02-25T09:07:40.142Z,98.02
2023-02-25T09:10:09.258Z,98.03
2023-02-25T09:12:38.305Z,97.58
2023-02-25T09:15:08.781Z,97.81
2023-02-25T09:17:36.220Z,97.32
2023-02-25T09:20:07.063Z,96.65
2023-02-25T09:22:34.712Z,95.12
2023-02-25T09:25:02.171Z,95.23
2023-02-25T09:27:29.642Z,94.57
2023-02-25T09:29:57.120Z,94.15
2023-02-25T09:32:26.044Z,93.58
2023-02-25T09:34:53.536Z,94.20
2023-02-25T09:37:21.882Z,92.77
2023-02-25T09:39:49.802Z,93.09
2023-02-25T09:42:21.576Z,93.23
2023-02-25T09:44:52.188Z,94.19
2023-02-25T09:47:25.450Z,94.54
2023-02-25T09:49:59.018Z,92.98
2023-02-25T09:52:30.336Z,92.12
2023-02-25T09:55:03.855Z,91.45
2023-02-25T09:57:36.512Z,91.23
2023-02-25T10:00:12.643Z,90.25
2023-02-25T10:02:48.557Z,91.30
2023-02-25T10:05:26.228Z,93.66
2023-02-25T10:08:00.960Z,97.09
2023-02-25T10:10:35.702Z,98.10
2023-02-25T10:13:18.064Z,99.71
2023-02-25T10:15:53.607Z,100.00
2023-02-25T10:18:42.589Z,100.00
2023-02-25T10:21:23.963Z,100.00
2023-02-25T10:24:04.823Z,100.00
2023-02-25T10:26:36.595Z,100.00
2023-02-25T10:29:07.443Z,100.00
2023-02-25T10:31:36.678Z,100.00
2023-02-25T10:34:20.969Z,100.00
2023-02-25T10:36:54.506Z,100.00
2023-02-25T10:39:22.392Z,99.29
2023-02-25T10:41:50.253Z,99.49
2023-02-25T10:44:18.273Z,97.83
2023-02-25T10:46:54.235Z,96.23
2023-02-25T10:49:25.390Z,96.51
2023-02-25T10:52:03.236Z,96.84
2023-02-25T10:54:32.524Z,96.09
2023-02-25T10:57:02.299Z,94.54
2023-02-25T10:59:33.441Z,91.50
2023-02-25T11:02:02.051Z,92.84
2023-02-25T11:04:35.576Z,94.96
2023-02-25T11:07:25.689Z,100.00
2023-02-25T11:10:13.715Z,97.14
2023-02-25T11:12:43.718Z,91.22
2023-02-25T11:15:43.602Z,87.27
2023-02-25T11:18:20.750Z,87.32
2023-02-25T11:20:51.572Z,78.12
2023-02-25T11:23:24.029Z,87.47
2023-02-25T11:25:53.658Z,89.22
2023-02-25T11:28:31.065Z,91.67
2023-02-25T11:31:08.358Z,93.89
2023-02-25T11:33:39.485Z,95.62
2023-02-25T11:36:08.140Z,96.14
2023-02-25T11:38:38.545Z,96.64
2023-02-25T11:41:17.370Z,96.03
2023-02-25T11:43:45.374Z,93.45
2023-02-25T11:46:19.562Z,92.41
2023-02-25T11:48:50.706Z,92.90
2023-02-25T11:51:25.494Z,92.32
2023-02-25T11:54:05.487Z,91.39
2023-02-25T11:56:36.449Z,91.23
2023-02-25T11:59:22.394Z,90.00
2023-02-25T12:02:23.863Z,91.63
2023-02-25T12:05:24.737Z,93.26
2023-02-25T12:08:13.792Z,95.91
2023-02-25T12:11:12.515Z,96.78
2023-02-25T12:14:11.410Z,96.93
2023-02-25T12:17:09.788Z,94.77
2023-02-25T12:20:05.674Z,93.22
2023-02-25T12:22:58.737Z,91.96
2023-02-25T12:25:38.242Z,93.45
2023-02-25T12:28:22.922Z,93.88
2023-02-25T12:31:21.704Z,96.20
2023-02-25T12:34:11.453Z,97.67
2023-02-25T12:36:49.344Z,98.25
2023-02-25T12:39:39.911Z,97.87
2023-02-25T12:42:21.188Z,96.12
2023-02-25T12:45:34.635Z,95.50
2023-02-25T12:48:28.839Z,95.68
2023-02-25T12:51:14.947Z,96.07
2023-02-25T12:53:54.580Z,95.09
2023-02-25T12:56:53.196Z,95.77
2023-02-25T12:59:51.931Z,96.20
2023-02-25T13:02:35.919Z,97.34
2023-02-25T13:05:26.932Z,98.78
2023-02-25T13:08:17.031Z,99.19
2023-02-25T13:11:01.215Z,99.36
2023-02-25T13:14:03.880Z,98.26
2023-02-25T13:16:43.821Z,97.70
2023-02-25T13:19:30.095Z,97.88
2023-02-25T13:22:16.404Z,96.22
2023-02-25T13:24:50.746Z,93.66
2023-02-25T13:27:43.751Z,94.25
2023-02-25T13:30:30.602Z,94.77
2023-02-25T13:33:11.081Z,94.62
2023-02-25T13:35:49.813Z,94.83
2023-02-25T13:38:35.276Z,95.33
2023-02-25T13:41:19.130Z,95.17
2023-02-25T13:44:13.126Z,94.20
2023-02-25T13:47:05.070Z,95.55
2023-02-25T13:50:04.441Z,96.35
2023-02-25T13:52:37.055Z,96.54
2023-02-25T13:55:25.073Z,96.49
2023-02-25T13:58:13.695Z,96.69
2023-02-25T14:01:23.542Z,98.42
2023-02-25T14:04:45.167Z,98.35
2023-02-25T14:07:52.355Z,97.19
2023-02-25T14:10:34.561Z,95.48
2023-02-25T14:13:18.487Z,94.77
2023-02-25T14:15:56.017Z,93.52
2023-02-25T14:18:38.836Z,92.81
2023-02-25T14:21:24.913Z,93.92
2023-02-25T14:23:58.240Z,92.21
2023-02-25T14:26:36.522Z,91.21
2023-02-25T14:29:16.457Z,91.65
2023-02-25T14:31:59.738Z,91.20
2023-02-25T14:34:37.114Z,91.54
2023-02-25T14:37:34.814Z,91.17
2023-02-25T14:40:29.799Z,90.31
2023-02-25T14:43:33.441Z,89.88
2023-02-25T14:46:10.341Z,89.49
2023-02-25T14:48:44.482Z,88.81
2023-02-25T14:51:33.357Z,88.42
2023-02-25T14:54:16.324Z,87.49
2023-02-25T14:57:13.322Z,83.93
2023-02-25T15:00:19.099Z,83.27
2023-02-25T15:03:11.084Z,83.12
2023-02-25T15:06:08.341Z,81.97
2023-02-25T15:09:07.060Z,81.44
2023-02-25T15:11:50.605Z,80.54
2023-02-25T15:14:39.558Z,80.05
2023-02-25T15:17:29.150Z,79.61
2023-02-25T15:20:22.798Z,81.28
2023-02-25T15:23:11.847Z,81.43
2023-02-25T15:25:49.945Z,81.40
2023-02-25T15:28:41.151Z,80.49
2023-02-25T15:31:38.907Z,81.62
2023-02-25T15:34:39.370Z,82.33
2023-02-25T15:37:37.148Z,80.45
2023-02-25T15:40:38.249Z,79.94
2023-02-25T15:43:39.000Z,80.12
2023-02-25T15:46:42.148Z,81.10
2023-02-25T15:49:23.131Z,82.30
2023-02-25T15:51:53.379Z,84.39
2023-02-25T15:54:49.293Z,90.38
2023-02-25T15:57:37.151Z,93.25
2023-02-25T16:00:31.153Z,95.69
2023-02-25T16:03:01.674Z,96.46
2023-02-25T16:05:34.332Z,96.64
2023-02-25T16:08:17.294Z,96.92
2023-02-25T16:10:50.716Z,96.77
2023-02-25T16:13:26.810Z,97.01
2023-02-25T16:15:57.532Z,96.93
2023-02-25T16:18:31.404Z,96.38
2023-02-25T16:21:01.621Z,96.41
2023-02-25T16:23:30.982Z,96.47
2023-02-25T16:26:09.126Z,96.45
2023-02-25T16:28:51.420Z,95.14
2023-02-25T16:31:24.677Z,96.94
2023-02-25T16:33:58.277Z,96.37
2023-02-25T16:36:35.170Z,95.66
2023-02-25T16:39:06.196Z,95.26
2023-02-25T16:41:38.741Z,95.13
2023-02-25T16:44:07.275Z,93.95
2023-02-25T16:46:39.078Z,94.64
2023-02-25T16:49:13.370Z,94.52
2023-02-25T16:51:46.749Z,94.17
2023-02-25T16:54:18.439Z,94.34
2023-02-25T16:56:50.036Z,94.52
2023-02-25T16:59:21.684Z,94.21
2023-02-25T17:01:56.875Z,93.65
2023-02-25T17:04:25.956Z,94.20
2023-02-25T17:07:13.419Z,94.29
2023-02-25T17:09:46.252Z,94.46
2023-02-25T17:12:19.552Z,93.65
2023-02-25T17:14:49.329Z,94.14
2023-02-25T17:17:21.913Z,94.60
2023-02-25T17:19:50.862Z,95.48
2023-02-25T17:22:22.343Z,94.30
2023-02-25T17:24:53.828Z,93.14
2023-02-25T17:27:24.445Z,92.07
2023-02-25T17:29:53.602Z,92.21
2023-02-25T17:32:24.336Z,91.71
2023-02-25T17:34:55.323Z,91.81
2023-02-25T17:37:24.752Z,90.96
2023-02-25T17:39:53.485Z,91.17
2023-02-25T17:42:35.458Z,90.87
2023-02-25T17:45:07.249Z,91.99
2023-02-25T17:47:37.235Z,90.99
2023-02-25T17:50:22.691Z,91.02
2023-02-25T17:52:50.410Z,91.77
2023-02-25T17:55:24.258Z,92.49
2023-02-25T17:57:54.686Z,93.82
2023-02-25T18:00:26.113Z,93.60
2023-02-25T18:03:15.374Z,94.46
2023-02-25T18:05:51.258Z,95.47
2023-02-25T18:08:20.734Z,96.41
2023-02-25T18:10:57.524Z,96.49
2023-02-25T18:13:33.742Z,95.46
2023-02-25T18:16:37.797Z,95.13
2023-02-25T18:19:10.786Z,95.92
2023-02-25T18:21:43.002Z,97.07
2023-02-25T18:24:23.736Z,97.09
2023-02-25T18:27:02.513Z,96.77
2023-02-25T18:29:32.023Z,97.51
2023-02-25T18:31:59.698Z,97.80
2023-02-25T18:34:27.240Z,97.69
2023-02-25T18:36:54.750Z,97.10
2023-02-25T18:39:24.544Z,97.28
2023-02-25T18:41:53.260Z,96.34
2023-02-25T18:44:20.802Z,96.29
2023-02-25T18:46:49.639Z,95.86
2023-02-25T18:49:17.212Z,96.30
2023-02-25T18:51:44.770Z,96.13
2023-02-25T18:54:17.409Z,95.73
2023-02-25T18:56:45.056Z,95.11
2023-02-25T18:59:12.475Z,95.10
2023-02-25T19:01:41.562Z,95.09
2023-02-25T19:04:16.108Z,94.36
2023-02-25T19:06:43.612Z,93.87
2023-02-25T19:09:11.445Z,93.88
2023-02-25T19:11:39.155Z,93.89
2023-02-25T19:14:08.236Z,93.03
2023-02-25T19:16:35.874Z,93.31
2023-02-25T19:19:05.785Z,92.55
2023-02-25T19:21:36.573Z,91.74
2023-02-25T19:24:04.128Z,90.95
2023-02-25T19:26:31.566Z,91.77
2023-02-25T19:28:59.050Z,91.78
2023-02-25T19:31:26.595Z,92.01
2023-02-25T19:33:54.307Z,90.44
2023-02-25T19:36:21.742Z,90.92
2023-02-25T19:38:50.631Z,90.62
2023-02-25T19:41:18.076Z,90.21
2023-02-25T19:43:45.619Z,90.64
2023-02-25T19:46:17.090Z,90.62
2023-02-25T19:48:44.703Z,90.57
2023-02-25T19:51:12.877Z,90.65
2023-02-25T19:53:41.285Z,90.91
2023-02-25T19:56:10.346Z,90.06
2023-02-25T19:58:37.938Z,90.05
2023-02-25T20:01:08.237Z,89.68
2023-02-25T20:03:36.636Z,90.02
2023-02-25T20:06:08.257Z,90.11
2023-02-25T20:08:37.199Z,88.08
2023-02-25T20:11:10.667Z,88.97
2023-02-25T20:13:39.265Z,90.17
2023-02-25T20:16:09.207Z,91.05
2023-02-25T20:18:36.791Z,91.75
2023-02-25T20:21:05.250Z,90.60
2023-02-25T20:23:32.853Z,91.35
2023-02-25T20:26:05.939Z,92.04
2023-02-25T20:28:35.562Z,91.65
2023-02-25T20:31:05.233Z,91.03
2023-02-25T20:33:35.521Z,90.62
2023-02-25T20:36:18.048Z,91.21
2023-02-25T20:38:58.708Z,92.17
2023-02-25T20:41:26.743Z,93.02
2023-02-25T20:43:55.802Z,93.12
2023-02-25T20:46:29.709Z,94.36
2023-02-25T20:48:57.708Z,94.80
2023-02-25T20:51:25.782Z,94.69
2023-02-25T20:53:54.476Z,94.55
2023-02-25T20:56:24.896Z,95.25
2023-02-25T20:58:53.404Z,94.65
2023-02-25T21:01:25.613Z,96.23
2023-02-25T21:03:54.433Z,96.20
2023-02-25T21:06:25.690Z,96.81
2023-02-25T21:08:53.996Z,97.47
2023-02-25T21:11:22.521Z,96.76
2023-02-25T21:13:51.514Z,97.75
2023-02-25T21:16:28.811Z,96.06
2023-02-25T21:18:58.991Z,97.04
2023-02-25T21:21:31.573Z,97.34
2023-02-25T21:24:02.258Z,98.78
2023-02-25T21:26:29.945Z,98.10
2023-02-25T21:28:57.401Z,98.74
2023-02-25T21:31:26.646Z,99.15
2023-02-25T21:33:54.190Z,98.72
2023-02-25T21:36:21.790Z,99.93
2023-02-25T21:38:49.304Z,100.00
2023-02-25T21:41:17.201Z,96.63
2023-02-25T21:43:46.107Z,89.04
2023-02-25T21:46:16.919Z,91.27
2023-02-25T21:48:48.495Z,92.07
2023-02-25T21:51:20.996Z,89.66
2023-02-25T21:53:48.964Z,88.26
2023-02-25T21:56:18.293Z,86.38
2023-02-25T21:58:46.273Z,88.85
2023-02-25T22:01:16.133Z,93.13
2023-02-25T22:03:44.496Z,95.64
2023-02-25T22:06:14.243Z,98.14
2023-02-25T22:08:42.498Z,100.00
2023-02-25T22:11:13.171Z,99.94
2023-02-25T22:13:41.117Z,99.61
2023-02-25T22:16:09.170Z,100.00
2023-02-25T22:18:36.985Z,99.37
2023-02-25T22:21:06.761Z,100.00
2023-02-25T22:23:35.709Z,100.00
2023-02-25T22:26:05.262Z,99.59
2023-02-25T22:28:32.909Z,100.00
2023-02-25T22:31:00.961Z,100.00
2023-02-25T22:33:28.754Z,100.00
2023-02-25T22:35:57.923Z,100.00
2023-02-25T22:38:28.126Z,100.00
2023-02-25T22:40:56.931Z,100.00
2023-02-25T22:43:24.679Z,100.00
2023-02-25T22:45:52.638Z,100.00
2023-02-25T22:48:20.692Z,100.00
2023-02-25T22:50:49.888Z,100.00
2023-02-25T22:53:17.929Z,99.95
2023-02-25T22:55:45.620Z,100.00
2023-02-25T22:58:14.506Z,100.00
2023-02-25T23:00:44.400Z,100.00
2023-02-25T23:03:12.198Z,100.00
2023-02-25T23:05:39.703Z,100.00
2023-02-25T23:08:07.239Z,99.20
2023-02-25T23:10:36.055Z,100.00
2023-02-25T23:13:07.964Z,100.00
2023-02-25T23:15:38.428Z,100.00
2023-02-25T23:18:08.651Z,99.92
2023-02-25T23:20:38.497Z,100.00
2023-02-25T23:23:07.594Z,100.00
2023-02-25T23:25:45.455Z,100.00
2023-02-25T23:28:12.892Z,99.47
2023-02-25T23:30:41.657Z,99.47
2023-02-25T23:33:11.104Z,100.00
2023-02-25T23:35:41.580Z,99.92
2023-02-25T23:38:09.529Z,100.00
2023-02-25T23:40:36.986Z,98.38
2023-02-25T23:43:04.561Z,99.16
2023-02-25T23:45:32.799Z,98.32
2023-02-25T23:48:01.652Z,97.78
2023-02-25T23:50:29.148Z,97.06
2023-02-25T23:52:56.654Z,96.25
2023-02-25T23:55:25.538Z,95.68
2023-02-25T23:57:53.282Z,96.82
